Latest Weather Observations for Troughton Island

IDW60801

Issued at 7:34 am WST Tuesday 17 October 2017 (issued every 30 minutes, with the page automatically refreshed every 10 minutes)

About weather observations | Map of weather stations | Latest weather observations for WA | Other Formats
Station Details ID: 001007 Name: TROUGHTON ISLAND Lat: -13.75 Lon: 126.15 Height: 6.0 m
Data from the previous 72 hours. | See also: Recent months at Troughton Island
Date/Time
WST
Temp
°C
App
Temp
°C
Dew
Point
°C
Rel
Hum
%
Delta-T
°C
Wind Press
QNH
hPa
Press
MSL
hPa
Rain since
9am
mm
Dir  Spd
km/h
Gust
km/h
Spd
kts
Gust
kts
17/07:30am 30.3 32.5 26.0 78 3.1 W 26 32 14 17 1008.5 1008.4 0.0
17/07:00am 29.8 31.5 25.3 77 3.2 W 26 30 14 16 1008.3 1008.2 0.0
17/06:30am 29.4 31.3 25.6 80 2.7 WSW 26 30 14 16 1008.0 1007.9 0.0
17/06:00am 28.8 30.7 25.6 83 2.3 WSW 26 32 14 17 1007.8 1007.7 0.0
17/05:30am 28.5 30.0 25.5 84 2.1 WSW 28 32 15 17 1007.5 1007.4 0.0
17/05:00am 28.3 30.0 25.3 84 2.1 WSW 26 30 14 16 1007.3 1007.2 0.0
17/04:30am 28.5 30.5 25.7 85 2.0 WSW 26 30 14 16 1007.2 1007.1 0.0
17/04:00am 28.3 30.3 25.7 86 1.8 W 26 32 14 17 1006.7 1006.6 0.0
17/03:30am 28.2 30.5 25.6 86 1.8 W 24 30 13 16 1006.4 1006.3 0.0
17/03:00am 28.4 30.0 25.8 86 1.8 W 28 33 15 18 1006.1 1006.0 0.0
17/02:30am 28.4 29.9 25.6 85 2.0 W 28 33 15 18 1006.2 1006.1 0.0
17/02:00am 28.5 29.7 25.7 85 2.0 W 30 33 16 18 1006.3 1006.2 0.0
17/01:30am 28.5 29.8 25.9 86 1.8 W 30 33 16 18 1006.5 1006.4 0.0
17/01:00am 28.5 30.2 25.9 86 1.8 W 28 32 15 17 1006.7 1006.6 0.0
17/12:30am 28.6 30.8 26.0 86 1.8 WNW 26 32 14 17 1006.8 1006.7 0.0
17/12:00am 28.7 30.7 25.7 84 2.1 WNW 26 30 14 16 1007.0 1006.9 0.0
 
Date/Time
WST
Temp
°C
App
Temp
°C
Dew
Point
°C
Rel
Hum
%
Delta-T
°C
Wind Press
QNH
hPa
Press
MSL
hPa
Rain since
9am
mm
Dir  Spd
km/h
Gust
km/h
Spd
kts
Gust
kts
16/11:30pm 28.8 30.7 25.6 83 2.3 W 26 30 14 16 1007.2 1007.1 0.0
16/11:00pm 28.9 31.2 25.7 83 2.3 W 24 28 13 15 1007.5 1007.4 0.0
16/10:30pm 28.9 31.1 25.5 82 2.4 WNW 24 28 13 15 1007.8 1007.7 0.0
16/10:00pm 29.0 30.0 25.4 81 2.5 W 30 32 16 17 1007.9 1007.8 0.0
16/09:30pm 29.1 31.1 25.7 82 2.4 WNW 26 32 14 17 1008.0 1007.9 0.0
16/09:00pm 29.0 30.9 25.6 82 2.4 WNW 26 30 14 16 1007.9 1007.8 0.0
16/08:30pm 29.1 31.8 25.7 82 2.4 WNW 22 30 12 16 1007.9 1007.8 0.0
16/08:00pm 29.2 30.9 26.4 85 2.0 WNW 30 35 16 19 1007.4 1007.3 0.0
16/07:30pm 29.1 30.7 26.3 85 2.0 WNW 30 37 16 20 1006.9 1006.8 0.0
16/07:00pm 29.2 31.1 26.8 87 1.7 WNW 30 37 16 20 1006.5 1006.4 0.0
16/06:30pm 29.2 30.4 26.6 86 1.9 WNW 33 37 18 20 1006.3 1006.2 0.0
16/06:00pm 29.2 30.6 26.6 86 1.9 WNW 32 37 17 20 1005.9 1005.8 0.0
16/05:30pm 29.4 31.1 26.4 84 2.1 WNW 30 35 16 19 1005.5 1005.4 0.0
16/05:00pm 29.9 32.0 26.5 82 2.4 WNW 28 33 15 18 1005.2 1005.1 0.0
16/04:30pm 30.6 32.8 26.7 80 2.8 WNW 28 33 15 18 1004.8 1004.7 0.0
16/04:00pm 31.1 32.9 26.6 77 3.2 WNW 30 33 16 18 1004.8 1004.7 0.0
16/03:30pm 31.6 34.1 27.1 77 3.3 WNW 28 35 15 19 1004.9 1004.8 0.0
16/03:00pm 31.8 33.5 25.9 71 4.2 W 28 32 15 17 1005.0 1004.9 0.0
16/02:30pm 32.1 34.1 25.7 69 4.6 WNW 26 30 14 16 1005.3 1005.2 0.0
16/02:00pm 32.8 35.2 26.4 69 4.6 W 26 30 14 16 1005.5 1005.4 0.0
16/01:30pm 32.7 35.0 25.0 64 5.4 W 22 26 12 14 1005.7 1005.6 0.0
16/01:00pm 32.4 34.9 24.7 64 5.4 WSW 20 24 11 13 1006.1 1006.0 0.0
16/12:30pm 32.1 34.4 24.4 63 5.4 W 20 24 11 13 1006.5 1006.4 0.0
16/12:00pm 32.7 35.7 25.5 66 5.1 WSW 20 26 11 14 1007.1 1007.0 0.0
16/11:30am 32.4 35.9 26.0 69 4.6 WSW 19 22 10 12 1007.7 1007.6 0.0
16/11:00am 32.2 35.6 25.8 69 4.6 WSW 19 24 10 13 1008.1 1008.0 0.0
16/10:30am 32.2 36.0 26.5 72 4.1 SW 19 26 10 14 1008.6 1008.5 0.0
16/10:00am 31.6 34.8 25.9 72 4.1 WSW 20 22 11 12 1009.0 1008.9 0.0
16/09:30am 31.7 35.5 26.7 75 3.6 WSW 20 24 11 13 1009.2 1009.1 0.0
16/09:00am 31.5 34.5 26.7 75 3.5 WSW 24 28 13 15 1009.2 1009.1 0.0
16/08:30am 31.1 33.9 26.4 76 3.4 W 24 30 13 16 1009.3 1009.2 0.0
16/08:00am 30.6 32.9 25.7 75 3.5 W 24 30 13 16 1009.4 1009.3 0.0
16/07:30am 30.6 32.6 25.2 73 3.8 W 24 28 13 15 1009.4 1009.3 0.0
16/07:00am 30.1 32.4 25.6 77 3.2 W 24 28 13 15 1009.2 1009.1 0.0
16/06:30am 29.6 31.8 24.9 76 3.3 W 22 26 12 14 1009.1 1009.0 0.0
16/06:00am 29.0 32.4 24.6 77 3.1 WNW 15 17 8 9 1008.9 1008.8 0.0
16/05:30am 28.5 32.5 25.1 82 2.4 WNW 13 17 7 9 1008.7 1008.6 0.0
16/05:00am 28.2 32.2 24.4 80 2.6 WNW 11 13 6 7 1008.5 1008.4 0.0
16/04:30am 28.2 32.3 24.0 78 2.9 NNW 9 11 5 6 1008.2 1008.1 0.0
16/04:00am 28.6 32.4 23.5 74 3.5 N 9 11 5 6 1007.9 1007.8 0.0
16/03:30am 28.5 32.4 23.0 72 3.8 NNE 7 9 4 5 1008.0 1007.9 0.0
16/03:00am 28.5 32.3 23.4 74 3.5 N 9 11 5 6 1007.7 1007.6 0.0
16/02:30am 28.7 32.2 23.6 74 3.5 NNE 11 15 6 8 1007.7 1007.6 0.0
16/02:00am 28.6 31.5 23.1 72 3.8 NNE 13 17 7 9 1007.5 1007.4 0.0
16/01:30am 28.5 31.8 23.2 73 3.6 NE 11 15 6 8 1007.8 1007.7 0.0
16/01:00am 28.8 31.9 22.8 70 4.1 ENE 11 13 6 7 1008.1 1008.0 0.0
16/12:30am 28.7 31.7 22.7 70 4.1 ESE 11 13 6 7 1008.4 1008.3 0.0
16/12:00am 28.9 30.2 23.3 72 3.8 SE 22 26 12 14 1008.6 1008.5 0.0
 
Date/Time
WST
Temp
°C
App
Temp
°C
Dew
Point
°C
Rel
Hum
%
Delta-T
°C
Wind Press
QNH
hPa
Press
MSL
hPa
Rain since
9am
mm
Dir  Spd
km/h
Gust
km/h
Spd
kts
Gust
kts
15/11:30pm 28.9 32.4 23.6 73 3.6 ESE 11 17 6 9 1008.8 1008.7 0.0
15/11:00pm 28.7 31.8 22.9 71 4.0 ENE 11 13 6 7 1008.6 1008.5 0.0
15/10:30pm 28.4 32.3 22.6 71 3.9 SW 6 11 3 6 1009.1 1009.0 0.0
15/10:00pm 28.5 30.8 22.7 71 3.9 SSW 15 19 8 10 1009.2 1009.1 0.0
15/09:30pm 28.1 29.5 22.8 73 3.6 S 20 26 11 14 1009.7 1009.6 0.0
15/09:00pm 27.9 27.3 23.3 76 3.2 SSE 32 35 17 19 1010.0 1009.9 0.0
15/08:30pm 29.3 28.2 22.5 67 4.6 S 32 39 17 21 1009.9 1009.8 0.0
15/08:10pm 29.0 30.1 25.6 82 2.4 SSW 30 43 16 23 1009.9 1009.8 0.0
15/08:00pm 29.6 33.6 26.8 85 2.0 WSW 19 24 10 13 1009.7 1009.6 0.0
15/07:30pm 29.5 33.7 26.5 84 2.1 WSW 17 20 9 11 1009.1 1009.0 0.0
15/07:00pm 29.4 33.4 26.2 83 2.3 WNW 17 19 9 10 1008.7 1008.6 0.0
15/06:30pm 29.5 33.7 26.5 84 2.1 WNW 17 20 9 11 1007.7 1007.6 0.0
15/06:00pm 29.6 33.7 26.4 83 2.3 NW 17 20 9 11 1007.4 1007.3 0.0
15/05:30pm 29.7 33.3 26.1 81 2.6 WNW 19 20 10 11 1007.0 1006.9 0.0
15/05:00pm 30.5 33.7 25.8 76 3.3 WNW 20 24 11 13 1006.4 1006.3 0.0
15/04:30pm 30.9 33.7 25.0 71 4.2 NW 19 22 10 12 1005.9 1005.8 0.0
15/04:00pm 31.2 33.9 24.8 69 4.5 WNW 19 20 10 11 1005.5 1005.4 0.0
15/03:30pm 31.7 34.6 25.1 68 4.7 WNW 19 20 10 11 1005.5 1005.4 0.0
15/03:00pm 32.1 34.9 24.9 65 5.1 WNW 19 22 10 12 1005.7 1005.6 0.0
15/02:30pm 32.0 35.0 25.3 67 4.7 WNW 19 22 10 12 1005.8 1005.7 0.0
15/02:00pm 32.4 36.0 26.5 71 4.2 W 20 22 11 12 1006.0 1005.9 0.0
15/01:30pm 32.3 36.1 26.4 71 4.2 W 19 22 10 12 1006.3 1006.2 0.0
15/01:00pm 31.8 35.4 26.1 72 4.1 WNW 19 22 10 12 1006.9 1006.8 0.0
15/12:30pm 32.2 36.1 26.0 70 4.4 WNW 17 20 9 11 1007.5 1007.4 0.0
15/12:00pm 31.9 36.1 26.0 71 4.2 NW 15 20 8 11 1008.0 1007.9 0.0
15/11:30am 31.8 36.1 26.1 72 4.1 NW 15 17 8 9 1008.5 1008.4 0.0
15/11:00am 31.4 36.8 26.0 73 3.9 W 9 13 5 7 1009.0 1008.9 0.0
15/10:30am 31.0 36.5 25.6 73 3.8 WSW 7 13 4 7 1009.3 1009.2 0.0
15/10:00am 30.8 35.9 25.6 74 3.7 W 9 11 5 6 1009.8 1009.7 0.0
15/09:30am 29.9 35.2 25.2 76 3.3 SW 7 9 4 5 1010.0 1009.9 0.0
15/09:00am 30.1 35.0 25.2 75 3.5 SW 9 13 5 7 1009.7 1009.6 0.0
15/08:30am 30.1 35.2 25.6 77 3.2 SW 9 11 5 6 1009.6 1009.5 0.0
15/08:00am 30.5 36.3 26.0 77 3.2 WSW 7 9 4 5 1009.7 1009.6 0.0
15/07:30am 30.5 36.7 26.7 80 2.7 WSW 7 9 4 5 1009.7 1009.6 0.0
15/07:00am 29.7 35.8 26.5 83 2.3 W 7 9 4 5 1009.4 1009.3 0.0
15/06:30am 29.2 35.2 26.4 85 2.0 NW 7 9 4 5 1009.0 1008.9 0.0
15/06:00am 28.8 34.7 26.2 86 1.9 NW 7 11 4 6 1008.5 1008.4 0.0
15/05:30am 28.5 34.2 25.9 86 1.8 WNW 7 9 4 5 1008.1 1008.0 0.0
15/05:00am 28.3 35.1 25.5 85 2.0 CALM 0 0 0 0 1007.6 1007.5 0.0
15/04:30am 28.2 34.8 25.2 84 2.1 CALM 0 0 0 0 1007.4 1007.3 0.0
15/04:00am 28.3 33.8 25.3 84 2.1 W 6 9 3 5 1006.7 1006.6 0.0
15/03:30am 28.4 33.4 25.4 84 2.1 W 9 13 5 7 1006.6 1006.5 0.0
15/03:00am 28.4 33.0 25.4 84 2.1 W 11 13 6 7 1006.3 1006.2 0.0
15/02:30am 28.4 33.5 25.6 85 2.0 W 9 11 5 6 1006.1 1006.0 0.0
15/02:00am 28.4 33.7 25.8 86 1.8 W 9 13 5 7 1006.1 1006.0 0.0
15/01:30am 28.4 33.1 25.6 85 2.0 W 11 13 6 7 1006.0 1005.9 0.0
15/01:00am 28.5 33.3 25.7 85 2.0 W 11 13 6 7 1006.3 1006.2 0.0
15/12:30am 28.6 33.3 25.6 84 2.1 WNW 11 13 6 7 1006.6 1006.5 0.0
15/12:00am 28.6 33.6 25.4 83 2.3 W 9 11 5 6 1006.9 1006.8 0.0
 
Date/Time
WST
Temp
°C
App
Temp
°C
Dew
Point
°C
Rel
Hum
%
Delta-T
°C
Wind Press
QNH
hPa
Press
MSL
hPa
Rain since
9am
mm
Dir  Spd
km/h
Gust
km/h
Spd
kts
Gust
kts
14/11:30pm 28.4 32.9 25.2 83 2.2 W 11 13 6 7 1007.0 1006.9 0.0
14/11:00pm 28.5 33.1 25.3 83 2.3 WSW 11 13 6 7 1007.4 1007.3 0.0
14/10:30pm 28.5 32.7 25.3 83 2.2 WSW 13 15 7 8 1007.8 1007.7 0.0
14/10:00pm 28.6 33.0 25.6 84 2.1 SW 13 17 7 9 1008.6 1008.5 0.0
14/09:30pm 28.7 32.8 25.7 84 2.1 SW 15 19 8 10 1008.6 1008.5 0.0
14/09:00pm 28.8 32.8 26.2 86 1.9 WSW 17 19 9 10 1008.5 1008.4 0.0
14/08:30pm 28.9 33.0 26.3 86 1.9 SW 17 19 9 10 1008.4 1008.3 0.0
14/08:00pm 29.3 33.8 26.9 87 1.7 WSW 17 20 9 11 1008.3 1008.2 0.0
14/07:30pm 29.2 33.5 26.6 86 1.9 WSW 17 20 9 11 1008.1 1008.0 0.0
14/07:00pm 29.4 33.2 26.8 86 1.9 SW 20 24 11 13 1008.3 1008.2 0.0
14/06:30pm 29.3 33.9 26.5 85 2.0 WSW 15 17 8 9 1008.1 1008.0 0.0
14/06:00pm 29.4 34.3 26.4 84 2.1 W 13 15 7 8 1007.3 1007.2 0.0
14/05:30pm 29.7 34.5 26.3 82 2.4 W 13 13 7 7 1007.0 1006.9 0.0
14/05:00pm 30.2 34.3 26.4 80 2.7 WNW 17 20 9 11 1006.2 1006.1 0.0
14/04:30pm 30.5 33.9 26.2 78 3.1 NW 20 26 11 14 1005.5 1005.4 0.0
14/04:00pm 31.1 34.3 26.4 76 3.4 NW 22 28 12 15 1005.7 1005.6 0.0
14/03:30pm 31.7 35.1 26.7 75 3.6 NW 22 26 12 14 1005.7 1005.6 0.0
14/03:00pm 32.0 36.0 27.0 75 3.6 NW 20 24 11 13 1005.7 1005.6 0.0
14/02:30pm 31.9 35.3 26.2 72 4.1 WNW 20 26 11 14 1005.8 1005.7 0.0
14/02:00pm 32.1 35.7 26.4 72 4.1 WNW 20 24 11 13 1006.1 1006.0 0.0
14/01:30pm 32.4 36.0 26.5 71 4.2 WNW 20 24 11 13 1006.2 1006.1 0.0
14/01:00pm 31.8 35.4 26.4 73 3.9 WNW 20 24 11 13 1006.5 1006.4 0.0
14/12:30pm 32.0 35.7 26.3 72 4.1 WNW 19 22 10 12 1006.8 1006.7 0.0
14/12:00pm 31.9 35.9 26.2 72 4.1 WNW 17 20 9 11 1007.5 1007.4 0.0
14/11:30am 31.8 35.6 25.9 71 4.2 WNW 17 20 9 11 1008.1 1008.0 0.0
14/11:00am 32.0 35.9 26.1 71 4.2 WNW 17 20 9 11 1008.5 1008.4 0.0
14/10:30am 32.4 36.8 26.2 70 4.4 WNW 15 19 8 10 1008.7 1008.6 0.0
14/10:00am 31.7 35.5 25.3 69 4.5 W 15 17 8 9 1009.0 1008.9 0.0
14/09:30am 31.7 35.4 25.1 68 4.7 W 15 17 8 9 1009.2 1009.1 0.0
14/09:00am 31.3 35.2 25.4 71 4.2 W 15 17 8 9 1009.3 1009.2 0.0
14/08:30am 31.4 35.3 25.5 71 4.2 WSW 15 17 8 9 1009.5 1009.4 0.0
14/08:00am 31.2 34.7 25.5 71 4.0 SW 17 20 9 11 1009.7 1009.6 0.0

Other Formats:

Comma delimited format used in spreadsheet applications
http://www.bom.gov.au/fwo/IDW60801/IDW60801.94102.axf

JavaScript Object Notation format (JSON) in row-major order
http://www.bom.gov.au/fwo/IDW60801/IDW60801.94102.json